createdAt,value
2022-10-22T00:02:24.616Z,86641.06
2022-10-22T00:04:51.690Z,86645.81
2022-10-22T00:07:19.333Z,86640.31
2022-10-22T00:09:47.201Z,86615.34
2022-10-22T00:12:16.033Z,86639.59
2022-10-22T00:14:43.553Z,86625.72
2022-10-22T00:17:11.487Z,86646.53
2022-10-22T00:19:40.032Z,86600.63
2022-10-22T00:22:08.758Z,86636.06
2022-10-22T00:24:38.635Z,86640.81
2022-10-22T00:27:06.847Z,86642.19
2022-10-22T00:29:35.184Z,86554.06
2022-10-22T00:32:02.550Z,86622.81
2022-10-22T00:34:29.801Z,86620.06
2022-10-22T00:36:57.862Z,86595.09
2022-10-22T00:39:26.326Z,86618.69
2022-10-22T00:41:54.636Z,86601.75
2022-10-22T00:44:59.502Z,86608.78
2022-10-22T00:47:29.123Z,86572.59
2022-10-22T00:49:57.475Z,86605.34
2022-10-22T00:52:25.236Z,86604.44
2022-10-22T00:54:52.785Z,86583.03
2022-10-22T00:57:21.445Z,86608.72
2022-10-22T00:59:49.136Z,86607.28
2022-10-22T01:02:16.995Z,86604.50
2022-10-22T01:04:44.918Z,86576.81
2022-10-22T01:07:21.503Z,86553.13
2022-10-22T01:09:51.346Z,86597.59
2022-10-22T01:13:07.024Z,86581.56
2022-10-22T01:15:43.405Z,86601.72
2022-10-22T01:18:29.429Z,86591.94
2022-10-22T01:20:56.300Z,86604.41
2022-10-22T01:23:53.060Z,86603.06
2022-10-22T01:26:42.836Z,86585.13
2022-10-22T01:29:34.438Z,86601.59
2022-10-22T01:32:05.902Z,86591.16
2022-10-22T01:34:34.648Z,86550.06
2022-10-22T01:37:03.089Z,86576.53
2022-10-22T01:39:31.676Z,86553.09
2022-10-22T01:41:58.670Z,86586.44
2022-10-22T01:44:31.891Z,86577.31
2022-10-22T01:47:21.489Z,86554.47
2022-10-22T01:50:14.429Z,86587.72
2022-10-22T01:53:26.544Z,86585.06
2022-10-22T01:56:15.227Z,86574.69
2022-10-22T01:58:53.141Z,86578.81
2022-10-22T02:01:32.388Z,86582.19
2022-10-22T02:04:11.561Z,86582.94
2022-10-22T02:06:41.268Z,86585.59
2022-10-22T02:09:10.702Z,86583.41
2022-10-22T02:11:38.879Z,86581.34
2022-10-22T02:14:09.282Z,86559.75
2022-10-22T02:16:42.219Z,86561.16
2022-10-22T02:19:19.962Z,86578.47
2022-10-22T02:21:47.150Z,86570.88
2022-10-22T02:24:14.748Z,86583.31
2022-10-22T02:27:12.197Z,86596.59
2022-10-22T02:29:52.297Z,86590.38
2022-10-22T02:32:24.889Z,86570.94
2022-10-22T02:34:54.093Z,86586.19
2022-10-22T02:37:22.882Z,86589.66
2022-10-22T02:39:51.538Z,86582.06
2022-10-22T02:42:18.629Z,86540.25
2022-10-22T02:44:45.613Z,86582.56
2022-10-22T02:47:12.698Z,86537.47
2022-10-22T02:49:39.608Z,86550.06
2022-10-22T02:52:06.703Z,86590.31
2022-10-22T02:54:33.791Z,86574.78
2022-10-22T02:57:00.705Z,86579.03
2022-10-22T02:59:27.613Z,86590.22
2022-10-22T03:01:54.558Z,86581.81
2022-10-22T03:04:21.522Z,86592.88
2022-10-22T03:06:49.286Z,86592.91
2022-10-22T03:09:17.484Z,86587.28
2022-10-22T03:11:47.244Z,86604.78
2022-10-22T03:14:14.597Z,86613.66
2022-10-22T03:16:41.753Z,86619.91
2022-10-22T03:19:08.807Z,86594.09
2022-10-22T03:21:41.598Z,86610.31
2022-10-22T03:24:13.861Z,86609.53
2022-10-22T03:26:42.244Z,86597.69
2022-10-22T03:29:12.032Z,86588.66
2022-10-22T03:31:39.012Z,86610.88
2022-10-22T03:34:06.014Z,86594.25
2022-10-22T03:36:33.518Z,86615.03
2022-10-22T03:39:01.938Z,86612.28
2022-10-22T03:41:29.359Z,86593.50
2022-10-22T03:43:57.622Z,86589.31
2022-10-22T03:46:24.606Z,86579.00
2022-10-22T03:48:51.577Z,86565.91
2022-10-22T03:51:18.631Z,86609.56
2022-10-22T03:53:45.626Z,86591.53
2022-10-22T03:56:13.282Z,86591.03
2022-10-22T03:58:41.489Z,86588.97
2022-10-22T04:01:10.938Z,86600.66
2022-10-22T04:03:40.038Z,86584.69
2022-10-22T04:06:09.516Z,86587.53
2022-10-22T04:08:39.795Z,86552.88
2022-10-22T04:11:07.201Z,86572.31
2022-10-22T04:13:34.657Z,86579.94
2022-10-22T04:16:20.111Z,86561.28
2022-10-22T04:18:48.603Z,86583.50
2022-10-22T04:21:19.285Z,86515.56
2022-10-22T04:23:48.064Z,86547.53
2022-10-22T04:26:15.686Z,86577.97
2022-10-22T04:28:42.887Z,86568.19
2022-10-22T04:31:15.648Z,86569.69
2022-10-22T04:33:43.047Z,86579.31
2022-10-22T04:36:12.881Z,86581.41
2022-10-22T04:38:40.924Z,86578.66
2022-10-22T04:41:16.995Z,86573.91
2022-10-22T04:43:44.875Z,86574.63
2022-10-22T04:46:13.293Z,86580.78
2022-10-22T04:48:42.611Z,86542.63
2022-10-22T04:51:12.899Z,86583.53
2022-10-22T04:53:43.366Z,86563.38
2022-10-22T04:56:36.653Z,86590.47
2022-10-22T04:59:08.152Z,86604.22
2022-10-22T05:01:41.666Z,86608.34
2022-10-22T05:04:13.337Z,86609.09
2022-10-22T05:06:40.429Z,86613.88
2022-10-22T05:09:11.193Z,86608.34
2022-10-22T05:11:41.767Z,86617.91
2022-10-22T05:14:10.723Z,86608.94
2022-10-22T05:16:40.803Z,86593.22
2022-10-22T05:19:08.322Z,86623.56
2022-10-22T05:21:37.637Z,86629.09
2022-10-22T05:24:04.933Z,86569.50
2022-10-22T05:26:31.869Z,86592.53
2022-10-22T05:28:58.886Z,86589.81
2022-10-22T05:31:26.286Z,86598.81
2022-10-22T05:33:53.164Z,86611.34
2022-10-22T05:36:22.445Z,86615.47
2022-10-22T05:38:50.105Z,86592.56
2022-10-22T05:41:20.519Z,86636.22
2022-10-22T05:43:47.528Z,86629.44
2022-10-22T05:46:22.004Z,86616.25
2022-10-22T05:48:57.539Z,86624.03
2022-10-22T05:51:25.798Z,86599.75
2022-10-22T05:53:55.354Z,86613.09
2022-10-22T05:56:23.505Z,86606.25
2022-10-22T05:58:50.989Z,86595.97
2022-10-22T06:01:19.230Z,86603.63
2022-10-22T06:03:47.835Z,86603.00
2022-10-22T06:06:26.235Z,86607.13
2022-10-22T06:08:54.381Z,86605.75
2022-10-22T06:11:23.307Z,86607.91
2022-10-22T06:13:51.085Z,86612.03
2022-10-22T06:16:18.360Z,86625.19
2022-10-22T06:18:45.723Z,86616.28
2022-10-22T06:21:14.510Z,86612.19
2022-10-22T06:23:44.012Z,86608.09
2022-10-22T06:26:11.688Z,86608.31
2022-10-22T06:28:39.297Z,86606.97
2022-10-22T06:31:07.017Z,86616.63
2022-10-22T06:33:34.506Z,86617.47
2022-10-22T06:36:09.244Z,86612.72
2022-10-22T06:38:36.179Z,86614.06
2022-10-22T06:41:05.452Z,86605.78
2022-10-22T06:43:32.532Z,86631.50
2022-10-22T06:46:04.566Z,86611.53
2022-10-22T06:48:31.729Z,86618.66
2022-10-22T06:51:06.175Z,86586.81
2022-10-22T06:53:33.519Z,86604.34
2022-10-22T06:56:05.914Z,86589.88
2022-10-22T06:58:32.852Z,86616.97
2022-10-22T07:01:05.222Z,86616.34
2022-10-22T07:03:32.270Z,86579.72
2022-10-22T07:06:01.459Z,86583.97
2022-10-22T07:08:29.242Z,86609.66
2022-10-22T07:10:56.814Z,86615.94
2022-10-22T07:13:23.776Z,86588.28
2022-10-22T07:15:55.146Z,86605.66
2022-10-22T07:18:22.575Z,86610.53
2022-10-22T07:20:49.783Z,86611.94
2022-10-22T07:23:17.487Z,86601.59
2022-10-22T07:25:44.538Z,86586.38
2022-10-22T07:28:11.798Z,86597.44
2022-10-22T07:30:40.293Z,86571.84
2022-10-22T07:33:07.759Z,86595.31
2022-10-22T07:35:35.133Z,86591.78
2022-10-22T07:38:02.154Z,86593.16
2022-10-22T07:40:29.142Z,86568.25
2022-10-22T07:42:56.337Z,86572.31
2022-10-22T07:45:23.454Z,86565.34
2022-10-22T07:47:50.499Z,86561.16
2022-10-22T07:50:18.446Z,86556.94
2022-10-22T07:52:45.578Z,86549.25
2022-10-22T07:55:13.611Z,86570.59
2022-10-22T07:57:40.993Z,86555.97
2022-10-22T08:00:09.598Z,86606.31
2022-10-22T08:02:39.768Z,86602.72
2022-10-22T08:05:07.735Z,86574.28
2022-10-22T08:07:34.780Z,86594.22
2022-10-22T08:10:02.014Z,86601.59
2022-10-22T08:12:29.374Z,86589.78
2022-10-22T08:14:56.500Z,86578.69
2022-10-22T08:17:23.481Z,86612.28
2022-10-22T08:19:50.562Z,86595.59
2022-10-22T08:22:17.564Z,86598.19
2022-10-22T08:24:44.668Z,86607.56
2022-10-22T08:27:11.678Z,86568.84
2022-10-22T08:29:38.975Z,86619.69
2022-10-22T08:32:06.000Z,86616.03
2022-10-22T08:34:33.053Z,86604.16
2022-10-22T08:37:00.140Z,86565.97
2022-10-22T08:39:27.351Z,86603.59
2022-10-22T08:42:31.864Z,86610.91
2022-10-22T08:45:25.350Z,86616.84
2022-10-22T08:48:04.440Z,86620.78
2022-10-22T08:50:38.909Z,86620.56
2022-10-22T08:53:15.898Z,86606.56
2022-10-22T08:55:44.624Z,86623.53
2022-10-22T08:58:32.364Z,86627.38
2022-10-22T09:01:02.798Z,86601.59
2022-10-22T09:03:38.663Z,86621.94
2022-10-22T09:06:16.013Z,86630.00
2022-10-22T09:08:45.126Z,86618.56
2022-10-22T09:11:23.072Z,86602.38
2022-10-22T09:13:51.392Z,86620.03
2022-10-22T09:16:59.915Z,86624.47
2022-10-22T09:19:35.873Z,86621.34
2022-10-22T09:22:30.469Z,86581.38
2022-10-22T09:25:26.009Z,86617.84
2022-10-22T09:27:58.309Z,86605.22
2022-10-22T09:30:29.978Z,86600.81
2022-10-22T09:33:08.174Z,86614.19
2022-10-22T09:35:46.822Z,86612.56
2022-10-22T09:38:16.202Z,86597.00
2022-10-22T09:40:53.568Z,86609.16
2022-10-22T09:43:21.302Z,86585.47
2022-10-22T09:46:01.804Z,86592.16
2022-10-22T09:48:42.066Z,86586.28
2022-10-22T09:51:23.162Z,86609.31
2022-10-22T09:53:58.795Z,86558.31
2022-10-22T09:56:28.806Z,86586.25
2022-10-22T09:58:58.069Z,86590.00
2022-10-22T10:01:34.100Z,86580.53
2022-10-22T10:04:10.180Z,86599.38
2022-10-22T10:06:40.487Z,86584.59
2022-10-22T10:09:16.638Z,86602.97
2022-10-22T10:11:46.956Z,86606.84
2022-10-22T10:14:21.722Z,86599.53
2022-10-22T10:17:04.849Z,86580.00
2022-10-22T10:19:50.184Z,86596.13
2022-10-22T10:22:52.616Z,86590.28
2022-10-22T10:25:32.991Z,86577.56
2022-10-22T10:28:21.032Z,86581.16
2022-10-22T10:31:21.768Z,86577.44
2022-10-22T10:34:13.423Z,86586.25
2022-10-22T10:36:45.453Z,86565.38
2022-10-22T10:39:30.442Z,86540.97
2022-10-22T10:42:06.865Z,86574.06
2022-10-22T10:44:45.783Z,86569.66
2022-10-22T10:47:29.030Z,86534.22
2022-10-22T10:50:19.883Z,86545.41
2022-10-22T10:53:07.716Z,86563.13
2022-10-22T10:55:42.465Z,86532.03
2022-10-22T10:58:39.325Z,86546.09
2022-10-22T11:01:27.361Z,86553.88
2022-10-22T11:04:32.076Z,86550.19
2022-10-22T11:07:11.536Z,86491.88
2022-10-22T11:09:51.199Z,86528.69
2022-10-22T11:12:29.065Z,86550.13
2022-10-22T11:15:18.079Z,86532.75
2022-10-22T11:17:48.985Z,86552.72
2022-10-22T11:20:22.597Z,86536.03
2022-10-22T11:23:18.826Z,86538.56
2022-10-22T11:25:51.355Z,86538.09
2022-10-22T11:28:26.052Z,86532.34
2022-10-22T11:31:03.315Z,86540.50
2022-10-22T11:34:04.675Z,86527.09
2022-10-22T11:36:38.345Z,86498.97
2022-10-22T11:39:05.620Z,86521.97
2022-10-22T11:41:34.653Z,86531.09
2022-10-22T11:44:07.685Z,86533.69
2022-10-22T11:46:46.217Z,86508.84
2022-10-22T11:49:13.192Z,86532.06
2022-10-22T11:51:43.098Z,86514.38
2022-10-22T11:54:30.241Z,86518.34
2022-10-22T11:57:46.567Z,86513.56
2022-10-22T12:00:46.314Z,86523.03
2022-10-22T12:03:39.960Z,86504.41
2022-10-22T12:06:12.922Z,86515.44
2022-10-22T12:08:49.069Z,86516.63
2022-10-22T12:11:37.938Z,86506.34
2022-10-22T12:14:19.560Z,86515.94
2022-10-22T12:16:57.439Z,86515.84
2022-10-22T12:19:36.138Z,86496.44
2022-10-22T12:22:27.080Z,86490.56
2022-10-22T12:24:57.369Z,86512.31
2022-10-22T12:27:34.899Z,86486.69
2022-10-22T12:30:11.100Z,86496.91
2022-10-22T12:32:41.507Z,86482.50
2022-10-22T12:35:20.645Z,86507.59
2022-10-22T12:38:13.629Z,86501.25
2022-10-22T12:40:45.825Z,86502.53
2022-10-22T12:43:24.260Z,86496.91
2022-10-22T12:45:52.173Z,86485.97
2022-10-22T12:48:29.358Z,86498.66
2022-10-22T12:50:59.796Z,86494.28
2022-10-22T12:53:37.950Z,86483.78
2022-10-22T12:56:10.608Z,86501.66
2022-10-22T12:58:47.480Z,86517.34
2022-10-22T13:01:17.435Z,86471.13
2022-10-22T13:03:50.867Z,86505.69
2022-10-22T13:06:20.996Z,86513.16
2022-10-22T13:09:00.475Z,86504.59
2022-10-22T13:11:40.169Z,86508.53
2022-10-22T13:14:26.376Z,86510.47
2022-10-22T13:17:10.519Z,86514.47
2022-10-22T13:20:01.927Z,86481.25
2022-10-22T13:22:37.991Z,86518.97
2022-10-22T13:25:20.000Z,86515.38
2022-10-22T13:27:49.843Z,86510.31
2022-10-22T13:30:26.620Z,86492.84
2022-10-22T13:33:06.057Z,86518.91
2022-10-22T13:35:37.473Z,86493.91
2022-10-22T13:38:18.529Z,86508.97
2022-10-22T13:40:46.235Z,86506.69
2022-10-22T13:43:13.186Z,86510.31
2022-10-22T13:45:40.647Z,86517.22
2022-10-22T13:48:15.001Z,86519.56
2022-10-22T13:50:42.038Z,86515.63
2022-10-22T13:53:22.279Z,86492.44
2022-10-22T13:55:50.399Z,86508.72
2022-10-22T13:58:20.278Z,86477.69
2022-10-22T14:00:59.118Z,86472.91
2022-10-22T14:03:34.656Z,86507.41
2022-10-22T14:06:01.809Z,86505.25
2022-10-22T14:08:28.923Z,86489.97
2022-10-22T14:10:56.317Z,86507.22
2022-10-22T14:13:26.731Z,86500.69
2022-10-22T14:15:53.906Z,86511.31
2022-10-22T14:18:26.511Z,86500.91
2022-10-22T14:20:56.966Z,86476.41
2022-10-22T14:23:27.526Z,86500.22
2022-10-22T14:25:55.596Z,86508.31
2022-10-22T14:28:22.775Z,86498.59
2022-10-22T14:30:50.477Z,86501.66
2022-10-22T14:33:21.302Z,86496.44
2022-10-22T14:35:49.276Z,86496.59
2022-10-22T14:38:17.898Z,86491.28
2022-10-22T14:40:45.670Z,86501.00
2022-10-22T14:43:38.197Z,86499.44
2022-10-22T14:46:05.319Z,86506.13
2022-10-22T14:48:32.368Z,86504.41
2022-10-22T14:50:59.378Z,86486.84
2022-10-22T14:53:26.307Z,86503.44
2022-10-22T14:55:55.634Z,86500.47
2022-10-22T14:58:22.666Z,86493.19
2022-10-22T15:00:49.719Z,86507.19
2022-10-22T15:03:16.850Z,86478.66
2022-10-22T15:05:44.991Z,86504.13
2022-10-22T15:08:13.666Z,86462.44
2022-10-22T15:10:40.946Z,86494.75
2022-10-22T15:13:08.191Z,86502.00
2022-10-22T15:15:39.644Z,86478.41
2022-10-22T15:18:07.238Z,86504.25
2022-10-22T15:20:34.280Z,86513.22
2022-10-22T15:23:01.285Z,86499.41
2022-10-22T15:25:28.895Z,86498.22
2022-10-22T15:28:00.677Z,86491.66
2022-10-22T15:30:31.900Z,86482.47
2022-10-22T15:32:58.830Z,86514.50
2022-10-22T15:35:28.930Z,86495.47
2022-10-22T15:37:55.967Z,86495.19
2022-10-22T15:40:22.979Z,86504.06
2022-10-22T15:42:50.998Z,86487.88
2022-10-22T15:45:18.385Z,86519.53
2022-10-22T15:47:47.630Z,86493.75
2022-10-22T15:50:15.205Z,86472.03
2022-10-22T15:52:42.100Z,86451.50
2022-10-22T15:55:10.756Z,86504.72
2022-10-22T15:57:39.199Z,86503.88
2022-10-22T16:00:08.165Z,86524.00
2022-10-22T16:02:41.972Z,86500.13
2022-10-22T16:05:09.490Z,86533.88
2022-10-22T16:07:39.771Z,86538.47
2022-10-22T16:10:08.008Z,86500.41
2022-10-22T16:12:36.146Z,86503.50
2022-10-22T16:15:03.251Z,86535.16
2022-10-22T16:17:30.343Z,86539.84
2022-10-22T16:19:57.298Z,86539.50
2022-10-22T16:22:24.488Z,86521.09
2022-10-22T16:24:51.416Z,86497.31
2022-10-22T16:27:18.438Z,86491.88
2022-10-22T16:29:45.435Z,86542.81
2022-10-22T16:32:13.393Z,86542.84
2022-10-22T16:34:42.096Z,86511.56
2022-10-22T16:37:10.480Z,86542.72
2022-10-22T16:39:37.900Z,86552.84
2022-10-22T16:42:05.301Z,86555.72
2022-10-22T16:44:32.286Z,86562.69
2022-10-22T16:46:59.368Z,86547.03
2022-10-22T16:49:26.729Z,86556.22
2022-10-22T16:51:53.675Z,86560.78
2022-10-22T16:57:02.681Z,86569.44
2022-10-22T16:59:29.597Z,86540.84
2022-10-22T17:01:57.507Z,86548.28
2022-10-22T17:04:24.518Z,86558.59
2022-10-22T17:06:51.559Z,86540.25
2022-10-22T17:09:18.715Z,86541.84
2022-10-22T17:11:45.685Z,86567.44
2022-10-22T17:14:13.891Z,86553.84
2022-10-22T17:16:41.073Z,86543.78
2022-10-22T17:19:08.322Z,86543.84
2022-10-22T17:21:35.327Z,86574.19
2022-10-22T17:24:18.629Z,86546.63
2022-10-22T17:27:10.874Z,86566.16
2022-10-22T17:29:37.960Z,86556.03
2022-10-22T17:32:05.161Z,86564.69
2022-10-22T17:34:33.402Z,86556.59
2022-10-22T17:37:29.094Z,86558.25
2022-10-22T17:39:55.944Z,86564.00
2022-10-22T17:42:22.854Z,86565.50
2022-10-22T17:44:50.016Z,86561.38
2022-10-22T17:47:17.022Z,86546.34
2022-10-22T17:49:44.108Z,86551.09
2022-10-22T17:52:13.839Z,86546.44
2022-10-22T17:54:42.102Z,86538.13
2022-10-22T17:57:09.767Z,86560.09
2022-10-22T17:59:36.817Z,86557.34
2022-10-22T18:02:04.170Z,86558.16
2022-10-22T18:04:32.262Z,86554.69
2022-10-22T18:06:59.725Z,86564.50
2022-10-22T18:09:27.007Z,86546.63
2022-10-22T18:11:54.947Z,86546.63
2022-10-22T18:19:39.504Z,86569.03
2022-10-22T18:22:08.042Z,86528.72
2022-10-22T18:24:36.831Z,86572.19
2022-10-22T18:27:04.150Z,86568.78
2022-10-22T18:29:31.194Z,86563.19
2022-10-22T18:31:58.125Z,86539.16
2022-10-22T18:34:25.138Z,86544.06
2022-10-22T18:36:52.250Z,86569.63
2022-10-22T18:39:19.692Z,86531.06
2022-10-22T18:41:46.708Z,86557.25
2022-10-22T18:44:15.406Z,86566.94
2022-10-22T18:46:42.953Z,86557.94
2022-10-22T18:49:16.527Z,86537.22
2022-10-22T18:51:43.453Z,86522.84
2022-10-22T18:54:22.702Z,86542.66
2022-10-22T18:56:50.551Z,86502.94
2022-10-22T18:59:23.235Z,86554.56
2022-10-22T19:01:52.715Z,86545.00
2022-10-22T19:04:20.052Z,86564.47
2022-10-22T19:06:47.251Z,86552.19
2022-10-22T19:09:15.669Z,86523.19
2022-10-22T19:11:44.360Z,86555.75
2022-10-22T19:14:11.353Z,86557.16
2022-10-22T19:16:38.853Z,86570.31
2022-10-22T19:19:07.423Z,86541.50
2022-10-22T19:21:36.645Z,86573.09
2022-10-22T19:24:06.468Z,86565.56
2022-10-22T19:26:33.720Z,86568.34
2022-10-22T19:29:00.814Z,86566.13
2022-10-22T19:31:30.188Z,86566.22
2022-10-22T19:33:58.848Z,86557.44
2022-10-22T19:36:30.391Z,86549.84
2022-10-22T19:38:57.643Z,86551.94
2022-10-22T19:41:26.922Z,86568.34
2022-10-22T19:43:54.875Z,86553.44
2022-10-22T19:46:23.091Z,86555.47
2022-10-22T19:48:51.537Z,86542.41
2022-10-22T19:51:21.692Z,86552.88
2022-10-22T19:53:49.625Z,86551.19
2022-10-22T19:56:20.037Z,86539.81
2022-10-22T19:58:47.894Z,86543.16
2022-10-22T20:01:17.072Z,86534.81
2022-10-22T20:03:44.298Z,86564.03
2022-10-22T20:06:13.969Z,86539.28
2022-10-22T20:08:41.445Z,86552.31
2022-10-22T20:11:15.402Z,86529.59
2022-10-22T20:13:43.627Z,86541.53
2022-10-22T20:16:15.903Z,86529.22
2022-10-22T20:18:43.038Z,86538.47
2022-10-22T20:21:13.960Z,86553.63
2022-10-22T20:23:42.168Z,86559.13
2022-10-22T20:26:09.852Z,86559.16
2022-10-22T20:28:38.392Z,86557.69
2022-10-22T20:31:17.676Z,86541.22
2022-10-22T20:33:44.814Z,86533.72
2022-10-22T20:36:21.194Z,86553.03
2022-10-22T20:38:48.658Z,86544.19
2022-10-22T20:41:19.501Z,86550.38
2022-10-22T20:43:48.165Z,86556.63
2022-10-22T20:46:29.532Z,86558.06
2022-10-22T20:49:06.312Z,86528.44
2022-10-22T20:51:34.986Z,86549.88
2022-10-22T20:54:02.169Z,86520.94
2022-10-22T20:56:29.432Z,86526.34
2022-10-22T20:59:04.599Z,86543.53
2022-10-22T21:01:53.024Z,86549.63
2022-10-22T21:04:21.559Z,86543.06
2022-10-22T21:06:50.370Z,86539.50
2022-10-22T21:09:17.498Z,86512.72
2022-10-22T21:11:44.594Z,86531.94
2022-10-22T21:14:13.801Z,86537.50
2022-10-22T21:16:46.592Z,86547.13
2022-10-22T21:19:13.589Z,86514.84
2022-10-22T21:21:41.007Z,86523.72
2022-10-22T21:24:08.063Z,86499.44
2022-10-22T21:26:39.611Z,86537.53
2022-10-22T21:29:07.048Z,86527.06
2022-10-22T21:31:34.200Z,86515.38
2022-10-22T21:34:01.248Z,86498.91
2022-10-22T21:36:28.241Z,86529.13
2022-10-22T21:38:55.496Z,86531.94
2022-10-22T21:41:23.970Z,86529.31
2022-10-22T21:43:56.214Z,86525.28
2022-10-22T21:46:25.818Z,86530.75
2022-10-22T21:48:54.748Z,86537.09
2022-10-22T21:51:23.412Z,86519.84
2022-10-22T21:56:36.348Z,86513.56
2022-10-22T21:59:21.870Z,86501.22
2022-10-22T22:01:49.013Z,86522.38
2022-10-22T22:04:15.956Z,86522.41
2022-10-22T22:06:54.107Z,86513.31
2022-10-22T22:09:21.973Z,86528.69
2022-10-22T22:11:49.096Z,86490.63
2022-10-22T22:14:16.168Z,86514.16
2022-10-22T22:16:43.044Z,86516.84
2022-10-22T22:19:10.695Z,86509.19
2022-10-22T22:21:39.868Z,86500.09
2022-10-22T22:24:08.367Z,86476.19
2022-10-22T22:26:35.396Z,86503.03
2022-10-22T22:29:02.606Z,86505.81
2022-10-22T22:31:32.239Z,86493.44
2022-10-22T22:34:05.802Z,86503.03
2022-10-22T22:36:35.475Z,86509.94
2022-10-22T22:39:07.155Z,86500.97
2022-10-22T22:41:34.552Z,86500.22
2022-10-22T22:44:01.875Z,86498.84
2022-10-22T22:46:29.089Z,86473.38
2022-10-22T22:48:56.302Z,86463.66
2022-10-22T22:51:23.770Z,86463.06
2022-10-22T22:53:51.400Z,86505.78
2022-10-22T22:56:22.643Z,86504.34
2022-10-22T22:58:50.200Z,86483.72
2022-10-22T23:01:20.839Z,86485.13
2022-10-22T23:03:54.408Z,86455.38
2022-10-22T23:06:21.392Z,86473.47
2022-10-22T23:08:50.509Z,86483.69
2022-10-22T23:11:18.190Z,86492.84
2022-10-22T23:13:45.813Z,86497.50
2022-10-22T23:16:19.116Z,86477.00
2022-10-22T23:18:47.988Z,86497.63
2022-10-22T23:21:26.947Z,86503.19
2022-10-22T23:23:58.443Z,86490.63
2022-10-22T23:26:29.437Z,86490.06
2022-10-22T23:29:01.672Z,86465.94
2022-10-22T23:31:28.744Z,86465.88
2022-10-22T23:33:55.718Z,86489.34
2022-10-22T23:36:22.812Z,86468.16
2022-10-22T23:38:50.975Z,86487.38
2022-10-22T23:44:24.949Z,86477.03
2022-10-22T23:46:52.311Z,86448.09
2022-10-22T23:49:19.453Z,86470.88
2022-10-22T23:51:46.600Z,86478.41
2022-10-22T23:54:16.006Z,86472.22
2022-10-22T23:56:43.079Z,86446.84
2022-10-22T23:59:10.672Z,86444.16
